createdAt,value
2022-08-26T00:01:54.559Z,22.70
2022-08-26T00:04:25.064Z,22.60
2022-08-26T00:06:54.592Z,22.60
2022-08-26T00:09:22.979Z,22.60
2022-08-26T00:11:53.778Z,22.60
2022-08-26T00:14:24.166Z,22.50
2022-08-26T00:16:55.931Z,22.50
2022-08-26T00:19:24.288Z,22.50
2022-08-26T00:21:52.069Z,22.40
2022-08-26T00:24:21.715Z,22.40
2022-08-26T00:26:50.736Z,22.30
2022-08-26T00:29:21.342Z,22.30
2022-08-26T00:31:50.224Z,22.20
2022-08-26T00:34:19.557Z,22.20
2022-08-26T00:36:47.892Z,22.20
2022-08-26T00:39:20.581Z,22.10
2022-08-26T00:41:48.492Z,22.10
2022-08-26T00:44:16.235Z,22.10
2022-08-26T00:46:48.932Z,22.00
2022-08-26T00:49:25.759Z,22.00
2022-08-26T00:51:56.329Z,22.00
2022-08-26T00:54:27.634Z,22.00
2022-08-26T00:57:00.882Z,22.00
2022-08-26T00:59:33.046Z,22.00
2022-08-26T01:02:02.731Z,22.00
2022-08-26T01:04:33.601Z,22.00
2022-08-26T01:07:01.965Z,22.00
2022-08-26T01:09:30.839Z,21.90
2022-08-26T01:12:01.599Z,21.90
2022-08-26T01:14:34.835Z,21.90
2022-08-26T01:17:06.288Z,21.90
2022-08-26T01:20:10.206Z,21.90
2022-08-26T01:22:52.360Z,21.90
2022-08-26T01:25:22.546Z,21.90
2022-08-26T01:27:51.197Z,21.90
2022-08-26T01:30:21.087Z,21.90
2022-08-26T01:32:50.482Z,21.90
2022-08-26T01:35:19.364Z,21.90
2022-08-26T01:37:49.533Z,21.80
2022-08-26T01:40:28.369Z,21.80
2022-08-26T01:42:56.524Z,21.80
2022-08-26T01:45:28.123Z,21.80
2022-08-26T01:47:59.464Z,21.80
2022-08-26T01:50:31.657Z,21.80
2022-08-26T01:53:05.939Z,21.80
2022-08-26T01:55:36.617Z,21.80
2022-08-26T01:58:07.838Z,21.80
2022-08-26T02:00:36.359Z,21.80
2022-08-26T02:03:18.664Z,21.80
2022-08-26T02:05:51.383Z,21.80
2022-08-26T02:08:25.373Z,21.80
2022-08-26T02:10:54.956Z,21.80
2022-08-26T02:13:25.356Z,21.80
2022-08-26T02:15:53.805Z,21.80
2022-08-26T02:18:22.534Z,21.80
2022-08-26T02:20:54.296Z,21.70
2022-08-26T02:23:24.509Z,21.70
2022-08-26T02:25:58.062Z,21.70
2022-08-26T02:28:28.465Z,21.60
2022-08-26T02:30:55.982Z,21.60
2022-08-26T02:33:23.595Z,21.60
2022-08-26T02:35:51.952Z,21.60
2022-08-26T02:38:19.525Z,21.60
2022-08-26T02:40:48.146Z,21.50
2022-08-26T02:43:15.890Z,21.50
2022-08-26T02:45:43.510Z,21.50
2022-08-26T02:48:14.526Z,21.50
2022-08-26T02:50:42.164Z,21.50
2022-08-26T02:53:13.308Z,21.50
2022-08-26T02:55:41.723Z,21.40
2022-08-26T02:58:11.194Z,21.40
2022-08-26T03:00:39.748Z,21.40
2022-08-26T03:03:23.448Z,21.40
2022-08-26T03:05:52.571Z,21.40
2022-08-26T03:08:20.332Z,21.30
2022-08-26T03:10:48.164Z,21.30
2022-08-26T03:13:18.550Z,21.30
2022-08-26T03:15:46.014Z,21.30
2022-08-26T03:18:15.996Z,21.20
2022-08-26T03:20:43.959Z,21.20
2022-08-26T03:23:12.558Z,21.20
2022-08-26T03:25:40.087Z,21.10
2022-08-26T03:28:07.851Z,21.10
2022-08-26T03:30:45.026Z,21.10
2022-08-26T03:33:14.076Z,21.10
2022-08-26T03:35:43.502Z,21.00
2022-08-26T03:38:11.736Z,21.00
2022-08-26T03:40:39.987Z,21.00
2022-08-26T03:43:09.691Z,20.90
2022-08-26T03:45:38.445Z,20.90
2022-08-26T03:48:06.725Z,20.90
2022-08-26T03:50:35.794Z,20.90
2022-08-26T03:53:04.439Z,20.80
2022-08-26T03:55:35.129Z,20.80
2022-08-26T03:58:02.887Z,20.80
2022-08-26T04:00:30.772Z,20.80
2022-08-26T04:02:58.705Z,20.70
2022-08-26T04:05:26.038Z,20.80
2022-08-26T04:07:55.980Z,20.70
2022-08-26T04:10:29.170Z,20.70
2022-08-26T04:12:59.287Z,20.60
2022-08-26T04:15:27.378Z,20.70
2022-08-26T04:17:56.023Z,20.60
2022-08-26T04:20:25.902Z,20.60
2022-08-26T04:22:53.751Z,20.60
2022-08-26T04:25:22.388Z,20.50
2022-08-26T04:27:49.781Z,20.50
2022-08-26T04:30:20.038Z,20.50
2022-08-26T04:32:47.454Z,20.50
2022-08-26T04:35:14.880Z,20.40
2022-08-26T04:37:43.891Z,20.40
2022-08-26T04:40:12.008Z,20.40
2022-08-26T04:42:39.359Z,20.40
2022-08-26T04:45:09.927Z,20.40
2022-08-26T04:47:38.940Z,20.40
2022-08-26T04:50:07.639Z,20.40
2022-08-26T04:52:36.620Z,20.40
2022-08-26T04:55:05.962Z,20.50
2022-08-26T04:57:35.311Z,20.50
2022-08-26T05:00:08.267Z,20.50
2022-08-26T05:02:36.238Z,20.60
2022-08-26T05:05:05.705Z,20.60
2022-08-26T05:07:34.948Z,20.70
2022-08-26T05:10:03.906Z,20.80
2022-08-26T05:12:36.168Z,21.00
2022-08-26T05:15:07.115Z,21.10
2022-08-26T05:17:34.877Z,21.30
2022-08-26T05:20:04.624Z,21.50
2022-08-26T05:22:32.277Z,21.80
2022-08-26T05:25:00.028Z,22.10
2022-08-26T05:27:28.303Z,22.50
2022-08-26T05:29:59.175Z,22.90
2022-08-26T05:32:27.450Z,23.40
2022-08-26T05:34:57.066Z,23.90
2022-08-26T05:37:26.276Z,24.30
2022-08-26T05:39:53.916Z,24.70
2022-08-26T05:42:21.916Z,25.10
2022-08-26T05:44:56.067Z,25.50
2022-08-26T05:47:24.689Z,26.00
2022-08-26T05:49:52.595Z,26.40
2022-08-26T05:52:20.624Z,26.80
2022-08-26T05:54:48.197Z,27.10
2022-08-26T05:57:15.750Z,27.50
2022-08-26T05:59:43.399Z,27.80
2022-08-26T06:02:11.082Z,28.10
2022-08-26T06:04:39.951Z,28.50
2022-08-26T06:07:07.729Z,28.80
2022-08-26T06:09:40.229Z,29.10
2022-08-26T06:12:08.441Z,29.40
2022-08-26T06:14:36.078Z,29.70
2022-08-26T06:17:03.689Z,30.00
2022-08-26T06:19:32.654Z,30.30
2022-08-26T06:22:23.605Z,30.50
2022-08-26T06:25:10.252Z,30.70
2022-08-26T06:27:39.683Z,31.00
2022-08-26T06:30:09.710Z,31.30
2022-08-26T06:32:37.293Z,31.50
2022-08-26T06:35:06.162Z,31.80
2022-08-26T06:37:39.995Z,31.90
2022-08-26T06:40:09.667Z,32.20
2022-08-26T06:42:39.679Z,32.30
2022-08-26T06:45:08.438Z,32.50
2022-08-26T06:47:36.612Z,32.70
2022-08-26T06:50:04.552Z,32.80
2022-08-26T06:52:32.031Z,33.00
2022-08-26T06:54:59.876Z,33.30
2022-08-26T06:57:28.577Z,33.50
2022-08-26T06:59:59.994Z,33.80
2022-08-26T07:02:28.603Z,34.10
2022-08-26T07:04:56.797Z,34.40
2022-08-26T07:07:24.453Z,34.60
2022-08-26T07:09:52.734Z,34.90
2022-08-26T07:12:20.628Z,35.20
2022-08-26T07:14:48.471Z,35.40
2022-08-26T07:17:16.507Z,35.70
2022-08-26T07:19:46.391Z,35.90
2022-08-26T07:22:15.395Z,36.20
2022-08-26T07:24:43.998Z,36.40
2022-08-26T07:27:14.727Z,36.60
2022-08-26T07:29:43.356Z,36.80
2022-08-26T07:32:14.007Z,36.80
2022-08-26T07:34:42.883Z,36.70
2022-08-26T07:37:11.581Z,36.40
2022-08-26T07:39:41.611Z,36.10
2022-08-26T07:42:14.121Z,35.70
2022-08-26T07:44:43.156Z,35.30
2022-08-26T07:47:25.522Z,35.00
2022-08-26T07:49:57.861Z,34.70
2022-08-26T07:52:28.458Z,34.30
2022-08-26T07:55:01.549Z,34.00
2022-08-26T07:57:30.427Z,33.80
2022-08-26T07:59:59.387Z,33.50
2022-08-26T08:02:28.846Z,33.30
2022-08-26T08:04:57.830Z,33.10
2022-08-26T08:07:44.327Z,33.10
2022-08-26T08:10:17.069Z,33.10
2022-08-26T08:12:44.758Z,33.20
2022-08-26T08:15:14.459Z,33.30
2022-08-26T08:17:46.171Z,33.50
2022-08-26T08:20:18.753Z,33.80
2022-08-26T08:22:46.514Z,34.30
2022-08-26T08:25:14.968Z,34.80
2022-08-26T08:27:45.160Z,35.30
2022-08-26T08:30:15.018Z,35.80
2022-08-26T08:32:48.911Z,36.20
2022-08-26T08:35:18.532Z,36.50
2022-08-26T08:37:46.359Z,36.80
2022-08-26T08:40:18.135Z,37.00
2022-08-26T08:43:06.468Z,37.20
2022-08-26T08:45:56.076Z,37.50
2022-08-26T08:48:27.736Z,37.70
2022-08-26T08:51:13.931Z,38.00
2022-08-26T08:53:44.454Z,38.30
2022-08-26T08:56:26.059Z,38.40
2022-08-26T08:58:59.241Z,38.60
2022-08-26T09:01:48.215Z,38.80
2022-08-26T09:04:29.143Z,39.00
2022-08-26T09:06:59.917Z,39.30
2022-08-26T09:09:38.368Z,39.50
2022-08-26T09:12:16.453Z,39.70
2022-08-26T09:14:47.027Z,39.90
2022-08-26T09:17:37.331Z,40.00
2022-08-26T09:20:43.828Z,40.20
2022-08-26T09:23:13.815Z,40.20
2022-08-26T09:25:50.940Z,40.20
2022-08-26T09:28:22.675Z,40.10
2022-08-26T09:31:13.364Z,40.10
2022-08-26T09:33:41.671Z,40.10
2022-08-26T09:36:41.482Z,40.10
2022-08-26T09:39:28.101Z,40.00
2022-08-26T09:42:24.477Z,40.00
2022-08-26T09:44:55.767Z,39.90
2022-08-26T09:47:32.245Z,39.90
2022-08-26T09:50:19.595Z,39.90
2022-08-26T09:53:02.983Z,39.80
2022-08-26T09:55:41.891Z,39.70
2022-08-26T09:58:31.702Z,39.60
2022-08-26T10:01:03.127Z,39.50
2022-08-26T10:03:34.209Z,39.30
2022-08-26T10:06:06.925Z,39.20
2022-08-26T10:08:42.264Z,39.10
2022-08-26T10:11:24.320Z,38.90
2022-08-26T10:13:56.777Z,38.50
2022-08-26T10:16:29.793Z,38.20
2022-08-26T10:19:20.734Z,37.70
2022-08-26T10:22:06.066Z,37.30
2022-08-26T10:24:41.630Z,36.90
2022-08-26T10:27:31.280Z,36.50
2022-08-26T10:30:07.597Z,36.10
2022-08-26T10:32:42.111Z,35.80
2022-08-26T10:35:13.699Z,35.50
2022-08-26T10:37:51.053Z,35.30
2022-08-26T10:40:25.245Z,35.10
2022-08-26T10:43:11.133Z,34.90
2022-08-26T10:45:47.344Z,34.80
2022-08-26T10:48:24.445Z,34.70
2022-08-26T10:50:52.784Z,34.60
2022-08-26T10:53:32.507Z,34.70
2022-08-26T10:56:06.950Z,34.70
2022-08-26T10:59:18.579Z,34.60
2022-08-26T11:02:07.152Z,34.70
2022-08-26T11:04:56.546Z,34.80
2022-08-26T11:07:33.963Z,34.90
2022-08-26T11:10:05.083Z,35.10
2022-08-26T11:12:35.138Z,35.20
2022-08-26T11:15:06.414Z,35.30
2022-08-26T11:17:44.479Z,35.50
2022-08-26T11:20:23.694Z,35.40
2022-08-26T11:22:53.359Z,35.20
2022-08-26T11:25:29.745Z,35.00
2022-08-26T11:27:59.813Z,34.80
2022-08-26T11:30:38.721Z,34.50
2022-08-26T11:33:09.082Z,34.20
2022-08-26T11:35:38.134Z,34.00
2022-08-26T11:38:21.524Z,33.80
2022-08-26T11:41:11.221Z,33.60
2022-08-26T11:43:40.858Z,33.50
2022-08-26T11:46:11.690Z,33.40
2022-08-26T11:48:42.526Z,33.30
2022-08-26T11:51:20.590Z,33.30
2022-08-26T11:53:48.227Z,33.30
2022-08-26T11:56:28.758Z,33.40
2022-08-26T11:59:02.968Z,33.40
2022-08-26T12:01:37.885Z,33.40
2022-08-26T12:04:08.550Z,33.40
2022-08-26T12:06:45.047Z,33.40
2022-08-26T12:09:25.799Z,33.40
2022-08-26T12:12:08.615Z,33.30
2022-08-26T12:14:40.308Z,33.30
2022-08-26T12:17:17.125Z,33.20
2022-08-26T12:19:46.840Z,33.20
2022-08-26T12:22:26.393Z,33.20
2022-08-26T12:25:01.468Z,33.20
2022-08-26T12:27:32.040Z,33.20
2022-08-26T12:30:12.704Z,33.20
2022-08-26T12:32:51.011Z,33.20
2022-08-26T12:35:28.768Z,33.20
2022-08-26T12:37:58.216Z,33.30
2022-08-26T12:40:32.647Z,33.30
2022-08-26T12:43:03.551Z,33.30
2022-08-26T12:45:37.513Z,33.40
2022-08-26T12:48:20.635Z,33.50
2022-08-26T12:50:52.803Z,33.50
2022-08-26T12:53:20.096Z,33.50
2022-08-26T12:55:56.596Z,33.60
2022-08-26T12:58:32.245Z,33.60
2022-08-26T13:01:06.383Z,33.50
2022-08-26T13:03:45.418Z,33.50
2022-08-26T13:06:31.212Z,33.50
2022-08-26T13:09:08.571Z,33.50
2022-08-26T13:11:55.902Z,33.40
2022-08-26T13:14:24.883Z,33.30
2022-08-26T13:16:53.042Z,33.30
2022-08-26T13:19:23.423Z,33.30
2022-08-26T13:21:53.886Z,33.30
2022-08-26T13:24:26.598Z,33.30
2022-08-26T13:26:54.372Z,33.20
2022-08-26T13:29:22.887Z,33.20
2022-08-26T13:31:51.437Z,33.20
2022-08-26T13:34:21.703Z,33.00
2022-08-26T13:36:51.247Z,33.00
2022-08-26T13:39:19.274Z,32.90
2022-08-26T13:41:47.183Z,32.70
2022-08-26T13:44:14.826Z,32.70
2022-08-26T13:46:42.493Z,32.60
2022-08-26T13:49:10.784Z,32.50
2022-08-26T13:51:38.968Z,32.40
2022-08-26T13:54:07.344Z,32.30
2022-08-26T13:56:35.412Z,32.20
2022-08-26T13:59:03.596Z,32.10
2022-08-26T14:01:31.887Z,32.10
2022-08-26T14:03:59.835Z,32.00
2022-08-26T14:06:27.343Z,31.90
2022-08-26T14:08:54.857Z,31.80
2022-08-26T14:11:23.002Z,31.80
2022-08-26T14:13:50.576Z,31.70
2022-08-26T14:16:27.489Z,31.60
2022-08-26T14:18:55.171Z,31.60
2022-08-26T14:21:23.930Z,31.50
2022-08-26T14:23:52.178Z,31.50
2022-08-26T14:26:28.211Z,31.50
2022-08-26T14:28:58.564Z,31.40
2022-08-26T14:31:29.355Z,31.30
2022-08-26T14:33:59.458Z,31.30
2022-08-26T14:36:33.244Z,31.10
2022-08-26T14:39:09.554Z,31.10
2022-08-26T14:41:53.968Z,31.00
2022-08-26T14:44:27.243Z,31.00
2022-08-26T14:46:55.364Z,30.90
2022-08-26T14:49:23.877Z,30.90
2022-08-26T14:51:51.327Z,30.90
2022-08-26T14:54:20.657Z,30.80
2022-08-26T14:56:59.294Z,30.70
2022-08-26T14:59:32.239Z,30.60
2022-08-26T15:02:00.475Z,30.50
2022-08-26T15:04:29.071Z,30.40
2022-08-26T15:06:58.979Z,30.30
2022-08-26T15:09:28.216Z,30.20
2022-08-26T15:11:56.886Z,30.00
2022-08-26T15:14:26.023Z,29.90
2022-08-26T15:16:56.889Z,29.80
2022-08-26T15:19:26.182Z,29.80
2022-08-26T15:21:54.159Z,29.70
2022-08-26T15:24:23.907Z,29.60
2022-08-26T15:26:52.948Z,29.60
2022-08-26T15:29:21.587Z,29.50
2022-08-26T15:31:49.771Z,29.50
2022-08-26T15:34:17.739Z,29.40
2022-08-26T15:36:46.908Z,29.40
2022-08-26T15:39:15.970Z,29.30
2022-08-26T15:41:43.986Z,29.30
2022-08-26T15:44:14.020Z,29.30
2022-08-26T15:46:41.993Z,29.20
2022-08-26T15:49:17.004Z,29.20
2022-08-26T15:51:48.072Z,29.20
2022-08-26T15:54:19.472Z,29.10
2022-08-26T15:56:50.440Z,29.10
2022-08-26T15:59:19.325Z,29.10
2022-08-26T16:01:47.635Z,29.00
2022-08-26T16:04:15.227Z,29.00
2022-08-26T16:06:46.250Z,29.00
2022-08-26T16:09:13.753Z,29.00
2022-08-26T16:11:41.279Z,29.00
2022-08-26T16:14:08.844Z,29.00
2022-08-26T16:16:40.029Z,29.00
2022-08-26T16:19:08.298Z,29.00
2022-08-26T16:21:35.833Z,29.00
2022-08-26T16:24:05.271Z,29.00
2022-08-26T16:26:35.115Z,29.00
2022-08-26T16:29:05.075Z,29.00
2022-08-26T16:31:32.563Z,29.00
2022-08-26T16:33:59.943Z,29.00
2022-08-26T16:36:27.472Z,29.00
2022-08-26T16:38:56.228Z,29.00
2022-08-26T16:41:25.531Z,29.00
2022-08-26T16:43:53.988Z,28.90
2022-08-26T16:46:25.364Z,28.90
2022-08-26T16:48:54.584Z,28.80
2022-08-26T16:51:24.270Z,28.70
2022-08-26T16:53:52.295Z,28.60
2022-08-26T16:56:22.916Z,28.50
2022-08-26T16:58:55.220Z,28.30
2022-08-26T17:01:22.960Z,28.20
2022-08-26T17:03:50.741Z,28.00
2022-08-26T17:06:18.730Z,27.80
2022-08-26T17:08:46.200Z,27.70
2022-08-26T17:11:13.990Z,27.40
2022-08-26T17:13:42.263Z,27.30
2022-08-26T17:16:11.285Z,27.00
2022-08-26T17:18:38.937Z,26.80
2022-08-26T17:21:10.165Z,26.50
2022-08-26T17:23:39.056Z,26.30
2022-08-26T17:26:06.999Z,26.00
2022-08-26T17:28:34.525Z,25.70
2022-08-26T17:31:02.654Z,25.50
2022-08-26T17:33:30.415Z,25.30
2022-08-26T17:35:59.231Z,25.10
2022-08-26T17:38:29.147Z,25.00
2022-08-26T17:40:57.731Z,24.90
2022-08-26T17:43:27.171Z,24.80
2022-08-26T17:46:07.082Z,24.60
2022-08-26T17:48:39.580Z,24.60
2022-08-26T17:51:12.449Z,24.50
2022-08-26T17:53:41.330Z,24.40
2022-08-26T17:56:11.252Z,24.30
2022-08-26T17:58:39.840Z,24.20
2022-08-26T18:01:07.914Z,24.10
2022-08-26T18:03:35.730Z,24.10
2022-08-26T18:06:08.119Z,24.10
2022-08-26T18:08:35.793Z,24.00
2022-08-26T18:11:03.368Z,24.00
2022-08-26T18:13:30.964Z,24.00
2022-08-26T18:15:58.749Z,23.90
2022-08-26T18:18:26.294Z,23.90
2022-08-26T18:20:56.843Z,23.80
2022-08-26T18:23:31.391Z,23.80
2022-08-26T18:25:59.348Z,23.80
2022-08-26T18:28:26.949Z,23.80
2022-08-26T18:30:54.600Z,23.70
2022-08-26T18:33:25.441Z,23.70
2022-08-26T18:35:52.986Z,23.70
2022-08-26T18:38:20.763Z,23.60
2022-08-26T18:40:49.931Z,23.60
2022-08-26T18:43:17.626Z,23.60
2022-08-26T18:45:45.216Z,23.60
2022-08-26T18:48:12.769Z,23.60
2022-08-26T18:50:43.885Z,23.50
2022-08-26T18:53:14.856Z,23.50
2022-08-26T18:55:42.978Z,23.50
2022-08-26T18:58:11.739Z,23.40
2022-08-26T19:00:39.333Z,23.40
2022-08-26T19:03:17.311Z,23.40
2022-08-26T19:05:46.884Z,23.40
2022-08-26T19:08:14.416Z,23.40
2022-08-26T19:10:42.176Z,23.30
2022-08-26T19:13:09.936Z,23.30
2022-08-26T19:15:42.532Z,23.30
2022-08-26T19:18:12.420Z,23.30
2022-08-26T19:20:46.795Z,23.30
2022-08-26T19:23:30.887Z,23.20
2022-08-26T19:26:02.975Z,23.20
2022-08-26T19:28:31.679Z,23.20
2022-08-26T19:31:00.124Z,23.10
2022-08-26T19:33:28.212Z,23.10
2022-08-26T19:35:56.065Z,23.00
2022-08-26T19:38:24.064Z,23.00
2022-08-26T19:40:51.537Z,22.90
2022-08-26T19:43:18.916Z,23.00
2022-08-26T19:45:47.531Z,23.00
2022-08-26T19:48:15.078Z,23.00
2022-08-26T19:50:42.544Z,23.00
2022-08-26T19:53:10.088Z,23.00
2022-08-26T19:55:37.567Z,23.00
2022-08-26T19:58:05.367Z,23.00
2022-08-26T20:00:34.499Z,22.90
2022-08-26T20:03:02.838Z,22.90
2022-08-26T20:05:30.489Z,23.00
2022-08-26T20:07:58.096Z,22.90
2022-08-26T20:10:25.875Z,22.90
2022-08-26T20:12:53.347Z,22.90
2022-08-26T20:15:22.384Z,22.90
2022-08-26T20:17:50.046Z,22.90
2022-08-26T20:20:36.479Z,22.90
2022-08-26T20:23:05.077Z,22.90
2022-08-26T20:25:33.239Z,22.90
2022-08-26T20:28:01.245Z,22.90
2022-08-26T20:30:28.875Z,22.80
2022-08-26T20:32:56.483Z,22.80
2022-08-26T20:35:24.026Z,22.80
2022-08-26T20:37:51.797Z,22.80
2022-08-26T20:40:21.098Z,22.80
2022-08-26T20:42:48.601Z,22.80
2022-08-26T20:45:16.243Z,22.80
2022-08-26T20:47:43.903Z,22.80
2022-08-26T20:50:11.494Z,22.80
2022-08-26T20:52:39.238Z,22.80
2022-08-26T20:55:07.371Z,22.80
2022-08-26T20:57:34.885Z,22.70
2022-08-26T21:00:02.883Z,22.80
2022-08-26T21:02:30.311Z,22.70
2022-08-26T21:04:57.924Z,22.70
2022-08-26T21:07:26.287Z,22.70
2022-08-26T21:09:54.108Z,22.70
2022-08-26T21:12:22.094Z,22.70
2022-08-26T21:14:49.904Z,22.70
2022-08-26T21:17:17.606Z,22.70
2022-08-26T21:19:45.129Z,22.70
2022-08-26T21:22:12.557Z,22.70
2022-08-26T21:24:40.213Z,22.60
2022-08-26T21:27:07.843Z,22.60
2022-08-26T21:29:37.007Z,22.60
2022-08-26T21:32:05.027Z,22.60
2022-08-26T21:34:32.780Z,22.60
2022-08-26T21:37:00.557Z,22.50
2022-08-26T21:39:28.230Z,22.50
2022-08-26T21:41:56.003Z,22.50
2022-08-26T21:44:23.799Z,22.50
2022-08-26T21:46:51.410Z,22.50
2022-08-26T21:49:19.623Z,22.40
2022-08-26T21:51:48.772Z,22.40
2022-08-26T21:54:18.236Z,22.40
2022-08-26T21:56:47.081Z,22.40
2022-08-26T21:59:17.239Z,22.40
2022-08-26T22:01:44.629Z,22.40
2022-08-26T22:04:12.450Z,22.40
2022-08-26T22:06:47.718Z,22.50
2022-08-26T22:09:17.803Z,22.40
2022-08-26T22:11:46.377Z,22.40
2022-08-26T22:14:16.258Z,22.40
2022-08-26T22:16:45.713Z,22.40
2022-08-26T22:19:20.114Z,22.40
2022-08-26T22:21:49.972Z,22.40
2022-08-26T22:24:22.432Z,22.40
2022-08-26T22:26:50.003Z,22.40
2022-08-26T22:29:18.810Z,22.40
2022-08-26T22:31:46.325Z,22.40
2022-08-26T22:34:17.248Z,22.40
2022-08-26T22:36:47.475Z,22.40
2022-08-26T22:39:18.096Z,22.40
2022-08-26T22:41:48.063Z,22.30
2022-08-26T22:44:16.803Z,22.30
2022-08-26T22:46:45.263Z,22.30
2022-08-26T22:49:16.276Z,22.40
2022-08-26T22:51:44.927Z,22.30
2022-08-26T22:54:13.199Z,22.30
2022-08-26T22:56:40.939Z,22.30
2022-08-26T22:59:10.536Z,22.30
2022-08-26T23:01:40.743Z,22.30
2022-08-26T23:04:09.276Z,22.30
2022-08-26T23:06:42.496Z,22.30
2022-08-26T23:09:10.039Z,22.30
2022-08-26T23:11:39.808Z,22.20
2022-08-26T23:14:10.716Z,22.20
2022-08-26T23:16:41.440Z,22.20
2022-08-26T23:19:11.652Z,22.30
2022-08-26T23:21:39.535Z,22.20
2022-08-26T23:24:07.528Z,22.20
2022-08-26T23:26:35.705Z,22.20
2022-08-26T23:29:04.858Z,22.20
2022-08-26T23:31:32.640Z,22.20
2022-08-26T23:34:35.603Z,22.20
2022-08-26T23:37:06.168Z,22.20
2022-08-26T23:39:36.100Z,22.20
2022-08-26T23:42:04.667Z,22.30
2022-08-26T23:44:33.040Z,22.20
2022-08-26T23:47:00.699Z,22.30
2022-08-26T23:49:29.259Z,22.20
2022-08-26T23:52:15.726Z,22.30
2022-08-26T23:54:43.860Z,22.20
2022-08-26T23:57:11.295Z,22.30
2022-08-26T23:59:39.059Z,22.20
